createdAt,value
2023-01-17T00:00:29.964Z,97596.53
2023-01-17T00:03:02.429Z,97598.21
2023-01-17T00:05:51.147Z,97593.91
2023-01-17T00:08:40.017Z,97591.10
2023-01-17T00:11:12.333Z,97589.69
2023-01-17T00:13:43.664Z,97585.18
2023-01-17T00:16:15.568Z,97586.84
2023-01-17T00:19:07.940Z,97582.58
2023-01-17T00:21:56.712Z,97577.38
2023-01-17T00:24:45.855Z,97568.93
2023-01-17T00:27:15.971Z,97571.89
2023-01-17T00:29:46.104Z,97559.81
2023-01-17T00:32:16.239Z,97556.23
2023-01-17T00:34:46.757Z,97558.95
2023-01-17T00:37:17.062Z,97560.16
2023-01-17T00:39:47.626Z,97556.38
2023-01-17T00:42:17.947Z,97552.64
2023-01-17T00:45:06.730Z,97553.33
2023-01-17T00:47:56.974Z,97554.03
2023-01-17T00:50:49.199Z,97555.95
2023-01-17T00:53:38.557Z,97557.95
2023-01-17T00:56:28.235Z,97556.38
2023-01-17T00:59:17.145Z,97553.27
2023-01-17T01:02:06.090Z,97556.00
2023-01-17T01:04:55.790Z,97553.02
2023-01-17T01:07:44.438Z,97542.14
2023-01-17T01:10:33.809Z,97542.12
2023-01-17T01:13:22.829Z,97537.60
2023-01-17T01:16:11.598Z,97540.14
2023-01-17T01:19:00.343Z,97535.64
2023-01-17T01:21:49.797Z,97537.00
2023-01-17T01:24:39.223Z,97531.22
2023-01-17T01:27:28.481Z,97526.11
2023-01-17T01:30:17.627Z,97521.23
2023-01-17T01:33:06.194Z,97519.23
2023-01-17T01:35:39.822Z,97520.14
2023-01-17T01:38:12.319Z,97512.64
2023-01-17T01:40:52.963Z,97502.33
2023-01-17T01:43:43.129Z,97500.24
2023-01-17T01:46:18.541Z,97498.63
2023-01-17T01:48:55.504Z,97488.11
2023-01-17T01:51:31.552Z,97481.98
2023-01-17T01:54:08.943Z,97486.19
2023-01-17T01:56:42.559Z,97487.14
2023-01-17T01:59:18.231Z,97486.14
2023-01-17T02:01:51.759Z,97483.16
2023-01-17T02:04:24.734Z,97479.28
2023-01-17T02:07:02.291Z,97470.98
2023-01-17T02:09:33.761Z,97470.26
2023-01-17T02:12:06.522Z,97473.29
2023-01-17T02:14:38.225Z,97471.20
2023-01-17T02:17:21.373Z,97470.76
2023-01-17T02:20:14.001Z,97469.23
2023-01-17T02:23:22.053Z,97466.75
2023-01-17T02:26:29.367Z,97458.41
2023-01-17T02:29:26.323Z,97451.83
2023-01-17T02:32:03.600Z,97446.46
2023-01-17T02:34:42.786Z,97453.93
2023-01-17T02:37:20.177Z,97452.48
2023-01-17T02:39:57.762Z,97449.02
2023-01-17T02:42:33.452Z,97447.34
2023-01-17T02:45:05.980Z,97450.05
2023-01-17T02:47:37.842Z,97455.23
2023-01-17T02:50:14.245Z,97462.02
2023-01-17T02:52:57.312Z,97461.41
2023-01-17T02:55:42.358Z,97459.80
2023-01-17T02:58:34.977Z,97458.50
2023-01-17T03:01:19.219Z,97457.73
2023-01-17T03:03:56.877Z,97449.92
2023-01-17T03:06:32.701Z,97448.10
2023-01-17T03:09:05.615Z,97444.95
2023-01-17T03:11:38.181Z,97436.99
2023-01-17T03:14:09.959Z,97438.27
2023-01-17T03:16:41.786Z,97439.56
2023-01-17T03:19:14.969Z,97437.99
2023-01-17T03:21:46.810Z,97436.90
2023-01-17T03:24:18.132Z,97433.63
2023-01-17T03:26:49.839Z,97435.39
2023-01-17T03:29:22.595Z,97438.73
2023-01-17T03:31:54.152Z,97432.42
2023-01-17T03:34:26.058Z,97439.73
2023-01-17T03:36:57.720Z,97434.58
2023-01-17T03:39:29.509Z,97437.58
2023-01-17T03:42:01.192Z,97435.88
2023-01-17T03:44:32.546Z,97430.80
2023-01-17T03:47:04.388Z,97431.48
2023-01-17T03:49:36.010Z,97429.13
2023-01-17T03:52:08.151Z,97426.39
2023-01-17T03:54:39.576Z,97426.63
2023-01-17T03:57:10.989Z,97431.02
2023-01-17T03:59:42.898Z,97426.20
2023-01-17T04:02:14.551Z,97426.85
2023-01-17T04:04:46.490Z,97427.08
2023-01-17T04:07:18.136Z,97425.25
2023-01-17T04:09:50.194Z,97420.38
2023-01-17T04:12:21.845Z,97421.47
2023-01-17T04:14:53.632Z,97425.73
2023-01-17T04:17:26.462Z,97428.14
2023-01-17T04:19:58.717Z,97426.70
2023-01-17T04:22:31.812Z,97431.36
2023-01-17T04:25:03.544Z,97434.49
2023-01-17T04:27:34.913Z,97431.74
2023-01-17T04:30:07.299Z,97427.90
2023-01-17T04:32:48.825Z,97427.92
2023-01-17T04:35:33.409Z,97428.33
2023-01-17T04:38:05.764Z,97432.20
2023-01-17T04:40:37.454Z,97442.04
2023-01-17T04:43:08.836Z,97447.65
2023-01-17T04:45:40.221Z,97444.61
2023-01-17T04:48:13.096Z,97441.39
2023-01-17T04:50:44.737Z,97441.16
2023-01-17T04:53:16.089Z,97443.75
2023-01-17T04:55:49.834Z,97447.96
2023-01-17T04:58:21.403Z,97444.79
2023-01-17T05:00:53.031Z,97445.23
2023-01-17T05:03:25.957Z,97446.53
2023-01-17T05:05:57.621Z,97446.90
2023-01-17T05:08:29.019Z,97444.31
2023-01-17T05:11:00.724Z,97444.55
2023-01-17T05:13:32.366Z,97445.36
2023-01-17T05:16:04.790Z,97446.68
2023-01-17T05:18:36.182Z,97444.56
2023-01-17T05:21:08.164Z,97441.48
2023-01-17T05:23:40.822Z,97443.38
2023-01-17T05:26:12.420Z,97439.61
2023-01-17T05:28:43.819Z,97446.11
2023-01-17T05:31:15.117Z,97445.55
2023-01-17T05:33:46.540Z,97446.55
2023-01-17T05:36:19.222Z,97442.39
2023-01-17T05:38:52.515Z,97446.58
2023-01-17T05:41:24.275Z,97450.15
2023-01-17T05:43:55.876Z,97453.83
2023-01-17T05:46:27.398Z,97458.89
2023-01-17T05:48:59.350Z,97461.21
2023-01-17T05:51:31.325Z,97459.83
2023-01-17T05:54:02.847Z,97454.23
2023-01-17T05:56:34.924Z,97448.59
2023-01-17T05:59:06.440Z,97444.11
2023-01-17T06:01:38.316Z,97447.30
2023-01-17T06:04:10.187Z,97450.70
2023-01-17T06:06:41.964Z,97447.73
2023-01-17T06:09:14.186Z,97462.95
2023-01-17T06:11:45.611Z,97473.54
2023-01-17T06:14:17.191Z,97480.82
2023-01-17T06:16:49.179Z,97481.76
2023-01-17T06:19:20.765Z,97489.17
2023-01-17T06:21:52.899Z,97484.59
2023-01-17T06:24:24.212Z,97484.48
2023-01-17T06:26:55.806Z,97487.59
2023-01-17T06:29:27.639Z,97491.98
2023-01-17T06:32:01.509Z,97499.91
2023-01-17T06:34:33.375Z,97503.13
2023-01-17T06:37:05.446Z,97505.90
2023-01-17T06:39:36.957Z,97511.33
2023-01-17T06:42:08.836Z,97510.21
2023-01-17T06:44:40.398Z,97505.70
2023-01-17T06:47:12.110Z,97502.91
2023-01-17T06:49:44.064Z,97506.15
2023-01-17T06:52:15.507Z,97502.80
2023-01-17T06:54:47.009Z,97503.92
2023-01-17T06:57:18.571Z,97503.84
2023-01-17T06:59:50.002Z,97508.23
2023-01-17T07:02:21.603Z,97516.30
2023-01-17T07:04:53.338Z,97512.80
2023-01-17T07:07:25.126Z,97507.04
2023-01-17T07:09:56.824Z,97512.20
2023-01-17T07:12:28.255Z,97516.08
2023-01-17T07:14:59.637Z,97516.71
2023-01-17T07:17:32.167Z,97515.27
2023-01-17T07:20:04.835Z,97516.61
2023-01-17T07:22:37.970Z,97510.86
2023-01-17T07:25:11.938Z,97507.92
2023-01-17T07:27:43.703Z,97508.78
2023-01-17T07:30:16.448Z,97513.45
2023-01-17T07:32:51.755Z,97517.19
2023-01-17T07:35:26.963Z,97508.85
2023-01-17T07:37:58.386Z,97518.70
2023-01-17T07:40:29.931Z,97527.02
2023-01-17T07:43:12.588Z,97534.02
2023-01-17T07:45:46.489Z,97538.76
2023-01-17T07:48:18.495Z,97548.16
2023-01-17T07:50:55.187Z,97552.58
2023-01-17T07:53:29.277Z,97554.89
2023-01-17T07:56:04.570Z,97552.33
2023-01-17T07:58:36.749Z,97546.89
2023-01-17T08:01:11.171Z,97546.05
2023-01-17T08:03:43.664Z,97547.04
2023-01-17T08:06:22.380Z,97551.52
2023-01-17T08:08:55.353Z,97552.03
2023-01-17T08:11:27.212Z,97553.49
2023-01-17T08:13:59.782Z,97551.09
2023-01-17T08:16:31.732Z,97544.79
2023-01-17T08:19:03.518Z,97544.59
2023-01-17T08:21:35.610Z,97545.27
2023-01-17T08:24:07.768Z,97547.25
2023-01-17T08:26:39.990Z,97551.66
2023-01-17T08:29:12.646Z,97549.27
2023-01-17T08:31:44.333Z,97548.80
2023-01-17T08:34:15.783Z,97550.20
2023-01-17T08:36:48.246Z,97545.52
2023-01-17T08:39:20.320Z,97546.13
2023-01-17T08:41:52.390Z,97544.61
2023-01-17T08:44:24.153Z,97545.65
2023-01-17T08:46:56.094Z,97551.44
2023-01-17T08:49:28.442Z,97552.41
2023-01-17T08:52:00.035Z,97553.45
2023-01-17T08:54:32.022Z,97556.75
2023-01-17T08:57:05.334Z,97555.75
2023-01-17T08:59:36.878Z,97561.61
2023-01-17T09:02:15.241Z,97561.86
2023-01-17T09:04:49.479Z,97563.35
2023-01-17T09:07:22.431Z,97565.65
2023-01-17T09:09:54.003Z,97568.94
2023-01-17T09:12:25.457Z,97568.50
2023-01-17T09:14:56.901Z,97568.69
2023-01-17T09:17:28.830Z,97569.67
2023-01-17T09:20:01.581Z,97570.66
2023-01-17T09:22:33.964Z,97568.64
2023-01-17T09:25:05.925Z,97568.42
2023-01-17T09:27:37.552Z,97569.59
2023-01-17T09:30:12.301Z,97569.02
2023-01-17T09:32:41.983Z,97567.02
2023-01-17T09:35:13.831Z,97565.66
2023-01-17T09:37:45.520Z,97569.39
2023-01-17T09:40:19.840Z,97572.30
2023-01-17T09:42:54.867Z,97567.42
2023-01-17T09:45:30.043Z,97568.77
2023-01-17T09:48:08.168Z,97567.39
2023-01-17T09:50:45.475Z,97571.54
2023-01-17T09:53:21.138Z,97570.77
2023-01-17T09:55:59.047Z,97578.81
2023-01-17T09:58:43.866Z,97581.50
2023-01-17T10:01:22.857Z,97584.90
2023-01-17T10:04:19.759Z,97587.73
2023-01-17T10:07:07.126Z,97594.83
2023-01-17T10:09:56.520Z,97593.81
2023-01-17T10:12:34.764Z,97588.09
2023-01-17T10:15:39.346Z,97588.48
2023-01-17T10:18:30.406Z,97592.33
2023-01-17T10:21:11.517Z,97594.19
2023-01-17T10:24:16.623Z,97598.46
2023-01-17T10:26:51.442Z,97598.61
2023-01-17T10:29:22.199Z,97600.69
2023-01-17T10:31:57.039Z,97595.40
2023-01-17T10:34:29.581Z,97592.95
2023-01-17T10:37:07.665Z,97594.13
2023-01-17T10:39:39.497Z,97595.68
2023-01-17T10:42:21.673Z,97600.37
2023-01-17T10:45:00.852Z,97602.52
2023-01-17T10:47:36.668Z,97596.61
2023-01-17T10:50:13.395Z,97594.10
2023-01-17T10:52:53.584Z,97593.17
2023-01-17T10:55:40.841Z,97594.95
2023-01-17T10:58:14.356Z,97595.05
2023-01-17T11:00:51.647Z,97597.20
2023-01-17T11:03:24.669Z,97599.92
2023-01-17T11:06:20.064Z,97606.17
2023-01-17T11:08:56.612Z,97603.16
2023-01-17T11:11:32.139Z,97604.86
2023-01-17T11:14:06.594Z,97608.98
2023-01-17T11:16:38.511Z,97610.23
2023-01-17T11:19:16.652Z,97611.58
2023-01-17T11:21:58.099Z,97616.10
2023-01-17T11:24:36.270Z,97617.20
2023-01-17T11:27:24.169Z,97621.91
2023-01-17T11:30:06.888Z,97631.03
2023-01-17T11:32:39.559Z,97626.61
2023-01-17T11:35:22.025Z,97625.04
2023-01-17T11:38:06.221Z,97631.98
2023-01-17T11:40:41.917Z,97628.20
2023-01-17T11:43:25.764Z,97627.66
2023-01-17T11:46:19.485Z,97628.25
2023-01-17T11:48:57.255Z,97621.38
2023-01-17T11:51:34.528Z,97619.86
2023-01-17T11:54:18.609Z,97617.19
2023-01-17T11:56:50.785Z,97616.01
2023-01-17T11:59:31.705Z,97617.66
2023-01-17T12:02:22.708Z,97627.45
2023-01-17T12:05:02.843Z,97622.13
2023-01-17T12:07:46.187Z,97623.58
2023-01-17T12:10:24.854Z,97625.13
2023-01-17T12:13:22.423Z,97623.84
2023-01-17T12:16:17.057Z,97620.19
2023-01-17T12:19:00.126Z,97622.35
2023-01-17T12:21:40.828Z,97625.23
2023-01-17T12:24:37.477Z,97623.19
2023-01-17T12:27:16.785Z,97630.20
2023-01-17T12:30:00.248Z,97630.70
2023-01-17T12:33:04.174Z,97632.71
2023-01-17T12:35:40.095Z,97632.86
2023-01-17T12:38:27.337Z,97636.73
2023-01-17T12:41:05.692Z,97641.30
2023-01-17T12:43:40.963Z,97645.61
2023-01-17T12:46:21.205Z,97644.95
2023-01-17T12:48:57.699Z,97644.96
2023-01-17T12:51:34.097Z,97640.92
2023-01-17T12:54:14.088Z,97644.09
2023-01-17T12:56:50.440Z,97640.18
2023-01-17T12:59:30.479Z,97644.72
2023-01-17T13:02:12.465Z,97644.35
2023-01-17T13:04:58.349Z,97642.46
2023-01-17T13:07:39.722Z,97645.48
2023-01-17T13:10:23.846Z,97644.16
2023-01-17T13:13:00.664Z,97641.25
2023-01-17T13:15:39.216Z,97639.58
2023-01-17T13:18:16.034Z,97641.24
2023-01-17T13:21:09.536Z,97638.14
2023-01-17T13:23:56.095Z,97640.11
2023-01-17T13:26:39.585Z,97637.23
2023-01-17T13:29:25.134Z,97643.63
2023-01-17T13:32:06.739Z,97648.86
2023-01-17T13:35:09.441Z,97647.91
2023-01-17T13:38:01.261Z,97651.19
2023-01-17T13:40:43.880Z,97653.11
2023-01-17T13:43:25.916Z,97651.51
2023-01-17T13:46:05.942Z,97658.55
2023-01-17T13:48:46.525Z,97655.09
2023-01-17T13:51:20.131Z,97648.54
2023-01-17T13:53:57.302Z,97642.77
2023-01-17T13:56:36.857Z,97647.89
2023-01-17T13:59:34.676Z,97650.17
2023-01-17T14:02:28.057Z,97654.86
2023-01-17T14:05:15.647Z,97659.33
2023-01-17T14:07:56.226Z,97664.23
2023-01-17T14:10:39.013Z,97661.32
2023-01-17T14:13:36.975Z,97677.36
2023-01-17T14:16:28.721Z,97685.65
2023-01-17T14:19:04.522Z,97693.65
2023-01-17T14:21:36.674Z,97701.64
2023-01-17T14:24:20.072Z,97699.11
2023-01-17T14:26:57.204Z,97696.64
2023-01-17T14:29:56.145Z,97701.48
2023-01-17T14:32:34.459Z,97705.09
2023-01-17T14:35:09.472Z,97700.21
2023-01-17T14:37:48.368Z,97709.90
2023-01-17T14:40:27.688Z,97715.05
2023-01-17T14:43:04.551Z,97720.56
2023-01-17T14:45:42.325Z,97727.25
2023-01-17T14:48:20.339Z,97727.06
2023-01-17T14:50:54.845Z,97723.23
2023-01-17T14:53:28.409Z,97729.39
2023-01-17T14:56:21.082Z,97728.62
2023-01-17T14:59:08.398Z,97731.11
2023-01-17T15:01:41.280Z,97730.93
2023-01-17T15:04:26.546Z,97736.02
2023-01-17T15:07:00.315Z,97746.17
2023-01-17T15:09:34.422Z,97747.62
2023-01-17T15:12:09.983Z,97753.93
2023-01-17T15:14:44.853Z,97761.13
2023-01-17T15:17:22.142Z,97764.13
2023-01-17T15:19:58.473Z,97774.48
2023-01-17T15:22:31.284Z,97784.81
2023-01-17T15:25:04.322Z,97797.95
2023-01-17T15:27:36.330Z,97805.09
2023-01-17T15:30:18.530Z,97826.20
2023-01-17T15:32:53.282Z,97832.56
2023-01-17T15:35:23.046Z,97830.70
2023-01-17T15:37:58.643Z,97832.36
2023-01-17T15:40:33.505Z,97838.91
2023-01-17T15:43:06.982Z,97851.04
2023-01-17T15:45:41.902Z,97845.92
2023-01-17T15:48:39.093Z,97844.52
2023-01-17T15:51:16.019Z,97849.17
2023-01-17T15:53:49.701Z,97858.27
2023-01-17T15:56:31.479Z,97865.10
2023-01-17T15:59:35.273Z,97864.90
2023-01-17T16:02:24.728Z,97881.38
2023-01-17T16:04:56.698Z,97884.81
2023-01-17T16:07:35.520Z,97874.77
2023-01-17T16:10:16.725Z,97880.74
2023-01-17T16:12:50.032Z,97885.92
2023-01-17T16:15:23.961Z,97889.83
2023-01-17T16:17:58.693Z,97888.48
2023-01-17T16:20:34.758Z,97889.58
2023-01-17T16:23:07.042Z,97891.72
2023-01-17T16:25:40.536Z,97892.10
2023-01-17T16:28:12.490Z,97891.64
2023-01-17T16:30:45.337Z,97875.67
2023-01-17T16:33:17.966Z,97873.98
2023-01-17T16:35:51.598Z,97879.44
2023-01-17T16:38:26.305Z,97879.45
2023-01-17T16:40:58.993Z,97872.97
2023-01-17T16:43:31.398Z,97870.38
2023-01-17T16:46:03.653Z,97870.75
2023-01-17T16:48:44.637Z,97878.02
2023-01-17T16:51:21.270Z,97878.81
2023-01-17T16:53:52.654Z,97872.48
2023-01-17T16:56:24.212Z,97879.80
2023-01-17T16:58:56.485Z,97875.50
2023-01-17T17:01:28.087Z,97878.90
2023-01-17T17:03:59.892Z,97876.23
2023-01-17T17:06:33.239Z,97875.09
2023-01-17T17:09:05.315Z,97869.02
2023-01-17T17:11:36.874Z,97866.01
2023-01-17T17:14:09.654Z,97862.92
2023-01-17T17:16:41.757Z,97863.80
2023-01-17T17:19:16.811Z,97863.10
2023-01-17T17:21:49.723Z,97860.76
2023-01-17T17:24:21.195Z,97863.98
2023-01-17T17:26:52.949Z,97864.50
2023-01-17T17:29:25.581Z,97866.30
2023-01-17T17:31:57.677Z,97868.79
2023-01-17T17:34:31.182Z,97864.40
2023-01-17T17:37:03.879Z,97861.48
2023-01-17T17:39:35.930Z,97869.70
2023-01-17T17:42:08.183Z,97870.02
2023-01-17T17:44:40.415Z,97871.50
2023-01-17T17:47:13.236Z,97865.93
2023-01-17T17:49:46.411Z,97867.76
2023-01-17T17:52:17.866Z,97864.89
2023-01-17T17:54:51.121Z,97868.39
2023-01-17T17:57:23.373Z,97870.73
2023-01-17T17:59:57.275Z,97867.35
2023-01-17T18:02:29.618Z,97869.43
2023-01-17T18:05:03.058Z,97865.46
2023-01-17T18:07:37.651Z,97855.36
2023-01-17T18:10:12.506Z,97859.07
2023-01-17T18:12:46.544Z,97866.71
2023-01-17T18:15:21.130Z,97873.99
2023-01-17T18:17:56.853Z,97876.17
2023-01-17T18:20:30.955Z,97872.71
2023-01-17T18:23:02.979Z,97877.13
2023-01-17T18:25:44.307Z,97879.05
2023-01-17T18:28:17.660Z,97877.39
2023-01-17T18:30:51.108Z,97879.83
2023-01-17T18:33:23.997Z,97877.13
2023-01-17T18:36:02.138Z,97877.30
2023-01-17T18:38:40.368Z,97881.81
2023-01-17T18:41:17.045Z,97886.33
2023-01-17T18:43:50.835Z,97892.20
2023-01-17T18:46:26.162Z,97890.02
2023-01-17T18:49:01.963Z,97888.41
2023-01-17T18:51:41.108Z,97895.88
2023-01-17T18:54:20.825Z,97901.91
2023-01-17T18:56:57.765Z,97905.81
2023-01-17T18:59:36.864Z,97906.83
2023-01-17T19:02:12.599Z,97907.88
2023-01-17T19:04:49.010Z,97914.34
2023-01-17T19:07:23.193Z,97922.80
2023-01-17T19:09:57.696Z,97931.76
2023-01-17T19:12:31.461Z,97939.55
2023-01-17T19:15:07.641Z,97937.41
2023-01-17T19:17:40.957Z,97943.79
2023-01-17T19:20:18.658Z,97947.63
2023-01-17T19:22:55.939Z,97944.14
2023-01-17T19:25:32.457Z,97952.77
2023-01-17T19:28:07.667Z,97961.32
2023-01-17T19:30:43.054Z,97971.35
2023-01-17T19:33:17.309Z,97973.67
2023-01-17T19:35:55.723Z,97975.14
2023-01-17T19:38:29.274Z,97981.67
2023-01-17T19:41:14.838Z,97982.16
2023-01-17T19:43:48.921Z,97984.83
2023-01-17T19:46:24.235Z,97989.88
2023-01-17T19:48:57.823Z,97993.81
2023-01-17T19:51:32.180Z,97998.45
2023-01-17T19:54:16.078Z,98002.98
2023-01-17T19:56:57.076Z,98008.13
2023-01-17T19:59:30.355Z,98007.73
2023-01-17T20:02:12.289Z,98007.29
2023-01-17T20:04:47.506Z,98006.11
2023-01-17T20:07:23.442Z,98013.06
2023-01-17T20:09:58.401Z,98016.38
2023-01-17T20:12:36.149Z,98017.89
2023-01-17T20:15:11.156Z,98013.29
2023-01-17T20:17:41.587Z,98014.29
2023-01-17T20:20:16.696Z,98018.77
2023-01-17T20:22:50.784Z,98019.73
2023-01-17T20:25:23.548Z,98016.65
2023-01-17T20:28:00.665Z,98017.48
2023-01-17T20:30:35.025Z,98009.70
2023-01-17T20:33:15.598Z,98005.55
2023-01-17T20:35:49.030Z,98004.86
2023-01-17T20:38:27.908Z,98006.14
2023-01-17T20:41:13.513Z,98006.92
2023-01-17T20:43:47.849Z,98006.92
2023-01-17T20:46:23.455Z,98009.56
2023-01-17T20:48:57.143Z,98006.19
2023-01-17T20:51:31.275Z,98006.58
2023-01-17T20:54:04.622Z,98006.64
2023-01-17T20:56:38.091Z,98013.58
2023-01-17T20:59:13.906Z,98013.63
2023-01-17T21:01:46.449Z,98010.57
2023-01-17T21:04:26.045Z,98015.66
2023-01-17T21:06:58.918Z,98014.21
2023-01-17T21:09:31.024Z,98017.64
2023-01-17T21:12:02.617Z,98025.73
2023-01-17T21:14:35.163Z,98028.33
2023-01-17T21:17:09.927Z,98028.52
2023-01-17T21:19:40.439Z,98023.21
2023-01-17T21:22:17.094Z,98013.27
2023-01-17T21:24:49.940Z,98009.77
2023-01-17T21:27:22.251Z,98011.62
2023-01-17T21:29:56.410Z,98019.09
2023-01-17T21:32:30.762Z,98011.31
2023-01-17T21:35:02.528Z,98005.39
2023-01-17T21:37:34.541Z,98000.77
2023-01-17T21:40:07.369Z,98002.16
2023-01-17T21:42:39.448Z,97999.98
2023-01-17T21:45:13.477Z,98004.31
2023-01-17T21:47:48.266Z,98002.03
2023-01-17T21:50:32.489Z,98008.82
2023-01-17T21:53:08.790Z,98011.35
2023-01-17T21:55:57.634Z,98005.87
2023-01-17T21:58:45.099Z,98006.85
2023-01-17T22:01:21.823Z,98011.76
2023-01-17T22:03:54.984Z,98006.03
2023-01-17T22:06:29.719Z,98013.69
2023-01-17T22:08:59.664Z,98012.27
2023-01-17T22:11:31.657Z,98006.42
2023-01-17T22:14:05.377Z,98003.84
2023-01-17T22:16:37.051Z,97997.73
2023-01-17T22:19:08.466Z,97992.99
2023-01-17T22:21:40.099Z,97996.73
2023-01-17T22:24:13.939Z,97996.27
2023-01-17T22:26:45.377Z,98000.77
2023-01-17T22:29:19.131Z,98010.26
2023-01-17T22:31:50.855Z,98005.34
2023-01-17T22:34:23.057Z,98008.38
2023-01-17T22:36:54.494Z,98011.21
2023-01-17T22:39:26.514Z,98012.09
2023-01-17T22:41:58.217Z,98019.66
2023-01-17T22:44:30.006Z,98016.77
2023-01-17T22:47:01.581Z,98007.81
2023-01-17T22:49:33.282Z,98008.36
2023-01-17T22:52:04.727Z,98002.55
2023-01-17T22:54:36.084Z,98002.60
2023-01-17T22:57:07.794Z,98005.16
2023-01-17T22:59:39.377Z,98006.21
2023-01-17T23:02:12.419Z,97995.09
2023-01-17T23:04:44.001Z,97985.52
2023-01-17T23:07:15.541Z,97985.02
2023-01-17T23:09:47.696Z,97984.76
2023-01-17T23:12:19.120Z,97984.91
2023-01-17T23:15:07.794Z,97988.39
2023-01-17T23:17:56.662Z,97985.60
2023-01-17T23:20:28.385Z,97986.45
2023-01-17T23:23:00.217Z,97986.95
2023-01-17T23:25:32.142Z,97991.92
2023-01-17T23:28:21.208Z,97986.89
2023-01-17T23:30:52.654Z,97987.27
2023-01-17T23:33:24.382Z,97987.66
2023-01-17T23:35:56.806Z,97995.02
2023-01-17T23:38:29.855Z,97996.02
2023-01-17T23:41:23.863Z,98001.34
2023-01-17T23:43:56.868Z,97998.96
2023-01-17T23:46:30.419Z,97983.28
2023-01-17T23:49:02.494Z,97970.50
2023-01-17T23:51:34.525Z,97966.38
2023-01-17T23:54:06.688Z,97959.33
2023-01-17T23:56:38.398Z,97961.35
2023-01-17T23:59:09.811Z,97959.57
